createdAt,value
2023-03-05T00:04:59.269Z,9.86
2023-03-05T00:10:18.451Z,11.28
2023-03-05T00:15:44.261Z,9.38
2023-03-05T00:21:07.148Z,9.67
2023-03-05T00:26:34.629Z,11.14
2023-03-05T00:31:58.282Z,9.29
2023-03-05T00:37:23.733Z,10.41
2023-03-05T00:42:48.374Z,10.74
2023-03-05T00:48:07.028Z,9.98
2023-03-05T00:53:32.246Z,9.96
2023-03-05T00:58:55.720Z,9.79
2023-03-05T01:04:20.761Z,9.60
2023-03-05T01:09:39.411Z,10.04
2023-03-05T01:14:57.593Z,9.72
2023-03-05T01:20:22.694Z,9.49
2023-03-05T01:25:47.818Z,9.79
2023-03-05T01:31:08.410Z,9.69
2023-03-05T01:36:53.350Z,10.38
2023-03-05T01:42:17.495Z,9.11
2023-03-05T01:47:41.630Z,9.45
2023-03-05T01:53:00.141Z,9.71
2023-03-05T01:58:21.334Z,9.76
2023-03-05T02:04:04.754Z,10.28
2023-03-05T02:09:22.661Z,9.97
2023-03-05T02:14:48.735Z,9.47
2023-03-05T02:20:11.483Z,10.21
2023-03-05T02:25:29.920Z,9.92
2023-03-05T02:30:48.882Z,9.77
2023-03-05T02:36:07.986Z,9.15
2023-03-05T02:41:32.659Z,9.57
2023-03-05T02:46:56.842Z,10.35
2023-03-05T02:52:22.425Z,9.49
2023-03-05T02:57:43.038Z,9.47
2023-03-05T03:03:31.238Z,10.02
2023-03-05T03:08:55.196Z,9.61
2023-03-05T03:14:14.578Z,9.27
2023-03-05T03:19:39.611Z,9.73
2023-03-05T03:24:58.946Z,10.17
2023-03-05T03:30:20.259Z,10.33
2023-03-05T03:35:45.247Z,10.16
2023-03-05T03:41:10.846Z,9.81
2023-03-05T03:46:33.612Z,9.62
2023-03-05T03:51:56.413Z,10.39
2023-03-05T03:57:38.604Z,10.17
2023-03-05T04:03:01.003Z,9.84
2023-03-05T04:08:25.557Z,8.63
2023-03-05T04:13:43.811Z,9.49
2023-03-05T04:19:07.543Z,9.27
2023-03-05T04:24:32.504Z,9.49
2023-03-05T04:29:57.828Z,9.71
2023-03-05T04:35:19.285Z,9.31
2023-03-05T04:41:02.209Z,10.60
2023-03-05T04:46:25.094Z,9.99
2023-03-05T04:52:08.162Z,10.78
2023-03-05T04:57:30.207Z,9.60
2023-03-05T05:02:53.513Z,9.74
2023-03-05T05:08:12.194Z,10.16
2023-03-05T05:13:37.442Z,10.43
2023-03-05T05:19:01.956Z,11.00
2023-03-05T05:24:26.637Z,8.97
2023-03-05T05:29:50.836Z,10.83
2023-03-05T05:35:15.804Z,10.72
2023-03-05T05:40:40.721Z,9.32
2023-03-05T05:46:06.047Z,10.10
2023-03-05T05:51:25.376Z,10.12
2023-03-05T05:56:44.135Z,9.30
2023-03-05T06:02:08.892Z,10.19
2023-03-05T06:07:26.808Z,9.85
2023-03-05T06:12:45.330Z,9.69
2023-03-05T06:18:10.335Z,10.49
2023-03-05T06:23:35.610Z,10.80
2023-03-05T06:28:54.022Z,10.13
2023-03-05T06:34:18.910Z,9.64
2023-03-05T06:39:42.647Z,10.08
2023-03-05T06:45:06.765Z,9.80
2023-03-05T06:50:26.410Z,10.05
2023-03-05T06:55:52.956Z,9.99
2023-03-05T07:01:16.470Z,10.38
2023-03-05T07:06:40.181Z,10.09
2023-03-05T07:12:02.273Z,9.41
2023-03-05T07:17:39.546Z,10.42
2023-03-05T07:23:03.663Z,10.71
2023-03-05T07:28:28.623Z,9.89
2023-03-05T07:33:54.013Z,10.04
2023-03-05T07:39:18.677Z,9.48
2023-03-05T07:45:20.144Z,9.85
2023-03-05T07:50:37.020Z,8.55
2023-03-05T07:56:02.126Z,8.48
2023-03-05T08:01:28.748Z,7.84
2023-03-05T08:06:48.074Z,7.88
2023-03-05T08:12:13.298Z,7.74
2023-03-05T08:17:38.390Z,7.37
2023-03-05T08:23:23.250Z,6.93
2023-03-05T08:28:43.495Z,6.77
2023-03-05T08:34:06.466Z,7.03
2023-03-05T08:39:30.754Z,7.83
2023-03-05T08:44:55.858Z,6.50
2023-03-05T08:50:21.152Z,6.31
2023-03-05T08:55:44.902Z,6.66
2023-03-05T09:01:14.674Z,5.77
2023-03-05T09:06:33.295Z,5.68
2023-03-05T09:12:18.899Z,5.62
2023-03-05T09:17:37.481Z,5.85
2023-03-05T09:23:02.908Z,5.39
2023-03-05T09:28:25.048Z,4.48
2023-03-05T09:33:49.087Z,4.31
2023-03-05T09:39:31.790Z,4.23
2023-03-05T09:44:55.825Z,3.46
2023-03-05T09:50:26.472Z,3.24
2023-03-05T09:56:19.226Z,4.13
2023-03-05T10:01:38.073Z,3.52
2023-03-05T10:07:01.723Z,3.20
2023-03-05T10:12:52.161Z,3.59
2023-03-05T10:18:10.427Z,3.72
2023-03-05T10:24:17.454Z,3.81
2023-03-05T10:29:41.405Z,3.50
2023-03-05T10:35:33.921Z,4.33
2023-03-05T10:41:07.418Z,4.06
2023-03-05T10:46:50.032Z,3.67
2023-03-05T10:52:27.928Z,4.07
2023-03-05T10:57:46.410Z,3.57
2023-03-05T11:03:11.485Z,3.42
2023-03-05T11:08:36.980Z,3.10
2023-03-05T11:13:56.134Z,3.80
2023-03-05T11:19:21.848Z,3.69
2023-03-05T11:24:47.027Z,2.72
2023-03-05T11:30:31.708Z,2.87
2023-03-05T11:35:55.457Z,3.22
2023-03-05T11:41:39.147Z,2.95
2023-03-05T11:47:01.298Z,3.49
2023-03-05T11:52:28.165Z,3.38
2023-03-05T11:57:52.504Z,3.61
2023-03-05T12:03:13.086Z,2.77
2023-03-05T12:08:36.684Z,3.36
2023-03-05T12:14:02.326Z,2.86
2023-03-05T12:19:23.284Z,2.70
2023-03-05T12:24:58.071Z,3.08
2023-03-05T12:30:35.869Z,2.91
2023-03-05T12:36:11.597Z,2.72
2023-03-05T12:41:54.706Z,2.67
2023-03-05T12:47:19.823Z,2.83
2023-03-05T12:53:01.815Z,2.94
2023-03-05T12:58:22.019Z,2.05
2023-03-05T13:03:42.497Z,2.01
2023-03-05T13:09:06.066Z,2.12
2023-03-05T13:14:59.994Z,2.76
2023-03-05T13:20:20.467Z,2.77
2023-03-05T13:25:52.536Z,2.72
2023-03-05T13:31:15.048Z,2.72
2023-03-05T13:36:38.898Z,2.62
2023-03-05T13:42:00.924Z,3.10
2023-03-05T13:47:28.317Z,2.47
2023-03-05T13:52:51.932Z,2.26
2023-03-05T13:58:14.567Z,2.81
2023-03-05T14:04:00.272Z,2.46
2023-03-05T14:09:24.640Z,2.76
2023-03-05T14:14:48.165Z,3.15
2023-03-05T14:20:10.331Z,2.51
2023-03-05T14:25:44.875Z,3.28
2023-03-05T14:31:09.311Z,2.82
2023-03-05T14:37:38.960Z,3.14
2023-03-05T14:42:58.436Z,2.97
2023-03-05T14:48:16.471Z,3.15
2023-03-05T14:53:41.124Z,3.09
2023-03-05T14:59:05.701Z,2.74
2023-03-05T15:04:29.482Z,2.74
2023-03-05T15:10:07.835Z,3.01
2023-03-05T15:15:26.201Z,2.89
2023-03-05T15:20:49.552Z,3.01
2023-03-05T15:26:11.257Z,3.10
2023-03-05T15:31:36.126Z,2.80
2023-03-05T15:37:01.264Z,2.35
2023-03-05T15:42:26.024Z,2.57
2023-03-05T15:48:05.029Z,2.58
2023-03-05T15:53:29.376Z,2.90
2023-03-05T15:58:48.245Z,2.77
2023-03-05T16:04:36.231Z,2.99
2023-03-05T16:10:18.224Z,2.94
2023-03-05T16:15:41.723Z,2.60
2023-03-05T16:21:06.800Z,2.52
2023-03-05T16:26:47.123Z,2.85
2023-03-05T16:32:10.771Z,2.57
2023-03-05T16:37:34.713Z,3.25
2023-03-05T16:43:23.517Z,2.90
2023-03-05T16:48:47.117Z,2.80
2023-03-05T16:54:10.063Z,2.96
2023-03-05T16:59:33.368Z,3.28
2023-03-05T17:04:55.357Z,2.83
2023-03-05T17:10:14.318Z,2.92
2023-03-05T17:15:49.113Z,3.74
2023-03-05T17:21:13.009Z,3.77
2023-03-05T17:26:37.830Z,3.59
2023-03-05T17:31:59.114Z,3.58
2023-03-05T17:37:23.932Z,4.09
2023-03-05T17:42:46.074Z,4.10
2023-03-05T17:48:09.558Z,3.71
2023-03-05T17:53:34.036Z,3.94
2023-03-05T17:58:57.620Z,4.72
2023-03-05T18:04:37.432Z,5.96
2023-03-05T18:10:01.631Z,4.92
2023-03-05T18:15:26.964Z,5.05
2023-03-05T18:20:52.119Z,4.72
2023-03-05T18:26:16.421Z,4.64
2023-03-05T18:31:39.688Z,4.46
2023-03-05T18:37:03.141Z,5.03
2023-03-05T18:42:22.201Z,5.48
2023-03-05T18:47:47.066Z,6.42
2023-03-05T18:53:09.796Z,5.67
2023-03-05T18:58:34.377Z,4.25
2023-03-05T19:03:52.850Z,4.77
2023-03-05T19:09:11.216Z,5.25
2023-03-05T19:14:33.988Z,5.25
2023-03-05T19:19:56.657Z,5.29
2023-03-05T19:25:21.883Z,5.65
2023-03-05T19:30:46.972Z,5.63
2023-03-05T19:36:12.106Z,5.45
2023-03-05T19:47:58.989Z,5.27
2023-03-05T19:53:23.233Z,5.92
2023-03-05T19:58:44.257Z,5.54
2023-03-05T20:04:08.102Z,4.70
2023-03-05T20:09:32.969Z,5.09
2023-03-05T20:14:58.098Z,4.98
2023-03-05T20:20:24.433Z,5.05
2023-03-05T20:25:49.499Z,5.00
2023-03-05T20:31:14.447Z,5.09
2023-03-05T20:36:36.448Z,4.63
2023-03-05T20:41:54.233Z,4.75
2023-03-05T20:47:19.502Z,5.29
2023-03-05T20:52:44.260Z,4.32
2023-03-05T20:58:09.364Z,4.39
2023-03-05T21:03:33.216Z,5.13
2023-03-05T21:08:52.047Z,4.29
2023-03-05T21:14:12.356Z,4.74
2023-03-05T21:19:33.817Z,4.69
2023-03-05T21:24:57.367Z,5.32
2023-03-05T21:30:15.670Z,5.22
2023-03-05T21:35:34.877Z,4.20
2023-03-05T21:40:59.551Z,4.72
2023-03-05T21:46:24.442Z,5.49
2023-03-05T21:51:48.820Z,6.31
2023-03-05T21:57:07.656Z,6.65
2023-03-05T22:02:32.480Z,6.82
2023-03-05T22:07:55.895Z,4.66
2023-03-05T22:13:20.402Z,4.67
2023-03-05T22:18:44.711Z,3.86
2023-03-05T22:24:09.073Z,4.01
2023-03-05T22:29:33.942Z,3.66
2023-03-05T22:35:13.274Z,4.38
2023-03-05T22:40:36.993Z,4.03
2023-03-05T22:45:55.517Z,3.76
2023-03-05T22:51:43.837Z,4.37
2023-03-05T22:57:02.054Z,4.11
2023-03-05T23:02:27.443Z,4.24
2023-03-05T23:07:51.603Z,4.06
2023-03-05T23:13:31.151Z,4.36
2023-03-05T23:18:52.534Z,4.15
2023-03-05T23:24:16.744Z,3.86
2023-03-05T23:29:41.780Z,3.99
2023-03-05T23:35:02.964Z,4.04
2023-03-05T23:40:22.084Z,3.60
2023-03-05T23:45:44.641Z,4.82
2023-03-05T23:51:02.881Z,4.08
2023-03-05T23:56:26.981Z,4.16
